SWA3970 KPVD-KMCO
Flight info
| Callsign | SWA3970 |
|---|---|
| Flight time | N/A |
| Altitude | 40000 |
| Route | N0447F400 DCT JUMPR DCT RIFLE DCT HEADI Q97 KALDA Q131 WAALT Y289 BAHAA DCT HIBAC ALYNA |
| Aircraft | B737/M-SADE2E3GIJ4RWZ/LB1D1 |
Departure
| Time | 2026-05-06 12:43 |
|---|---|
| Airport | Rhode Island T. F. Green International Airport (KPVD) |
Arrival
| Time | N/A |
|---|---|
| Airport | Orlando International Airport (KMCO) |
| Time | Latitude | Longitude | Altitude | Speed | Heading |
|---|---|---|---|---|---|
| 2026-05-06 12:25 | 41.72775 | -71.43424 | 63 ft | 0 kts | 150° |
| 2026-05-06 12:25 | 41.72772 | -71.43421 | 62 ft | 0 kts | 150° |
| 2026-05-06 12:37 | 41.72772 | -71.43422 | 63 ft | 1 kts | 150° |
| 2026-05-06 12:37 | 41.72791 | -71.43432 | 59 ft | 4 kts | 181° |
| 2026-05-06 12:38 | 41.72812 | -71.43437 | 56 ft | 4 kts | 144° |
| 2026-05-06 12:38 | 41.72822 | -71.43457 | 59 ft | 4 kts | 66° |
| 2026-05-06 12:38 | 41.72807 | -71.43482 | 56 ft | 4 kts | 46° |
| 2026-05-06 12:38 | 41.72801 | -71.43491 | 61 ft | 1 kts | 45° |
| 2026-05-06 12:40 | 41.72802 | -71.43488 | 60 ft | 3 kts | 45° |
| 2026-05-06 12:41 | 41.72827 | -71.43455 | 66 ft | 7 kts | 45° |
| 2026-05-06 12:41 | 41.72868 | -71.43400 | 63 ft | 10 kts | 45° |
| 2026-05-06 12:41 | 41.72926 | -71.43325 | 61 ft | 12 kts | 38° |
| 2026-05-06 12:41 | 41.73000 | -71.43280 | 62 ft | 12 kts | 21° |
| 2026-05-06 12:42 | 41.73076 | -71.43241 | 59 ft | 12 kts | 21° |
| 2026-05-06 12:42 | 41.73128 | -71.43208 | 60 ft | 7 kts | 51° |
| 2026-05-06 12:42 | 41.73113 | -71.43163 | 57 ft | 5 kts | 139° |
| 2026-05-06 12:42 | 41.73108 | -71.43157 | 59 ft | 0 kts | 142° |
| 2026-05-06 12:43 | 41.73012 | -71.43059 | 62 ft | 54 kts | 143° |
| 2026-05-06 12:43 | 41.72491 | -71.42514 | 56 ft | 132 kts | 143° |
| 2026-05-06 12:43 | 41.71692 | -71.41714 | 626 ft | 149 kts | 152° |
| 2026-05-06 12:43 | 41.70807 | -71.40850 | 1323 ft | 166 kts | 153° |
| 2026-05-06 12:44 | 41.69855 | -71.39932 | 2149 ft | 171 kts | 162° |
| 2026-05-06 12:44 | 41.68708 | -71.39177 | 2495 ft | 195 kts | 173° |
| 2026-05-06 12:44 | 41.67316 | -71.38781 | 2876 ft | 216 kts | 177° |
| 2026-05-06 12:44 | 41.65740 | -71.38384 | 3339 ft | 239 kts | 175° |
| 2026-05-06 12:45 | 41.64075 | -71.37946 | 4277 ft | 246 kts | 174° |
| 2026-05-06 12:45 | 41.62420 | -71.37496 | 5211 ft | 247 kts | 174° |
| 2026-05-06 12:45 | 41.59001 | -71.36547 | 7049 ft | 253 kts | 174° |
| 2026-05-06 12:46 | 41.57274 | -71.36062 | 8039 ft | 253 kts | 175° |
| 2026-05-06 12:46 | 41.55549 | -71.35574 | 9121 ft | 252 kts | 175° |
| 2026-05-06 12:46 | 41.53824 | -71.35086 | 10151 ft | 254 kts | 175° |
| 2026-05-06 12:46 | 41.52035 | -71.34586 | 10666 ft | 275 kts | 175° |
| 2026-05-06 12:47 | 41.50062 | -71.34042 | 10867 ft | 304 kts | 175° |
| 2026-05-06 12:47 | 41.47921 | -71.33443 | 11311 ft | 321 kts | 174° |
| 2026-05-06 12:47 | 41.45703 | -71.32811 | 12019 ft | 330 kts | 174° |
| 2026-05-06 12:47 | 41.43471 | -71.32171 | 12842 ft | 334 kts | 174° |
| 2026-05-06 12:48 | 41.41177 | -71.31514 | 13662 ft | 340 kts | 174° |
| 2026-05-06 12:48 | 41.38835 | -71.30847 | 14403 ft | 347 kts | 174° |
| 2026-05-06 12:48 | 41.36451 | -71.30170 | 15151 ft | 354 kts | 173° |
| 2026-05-06 12:48 | 41.34019 | -71.29481 | 15899 ft | 360 kts | 173° |
| 2026-05-06 12:49 | 41.31543 | -71.28779 | 16647 ft | 367 kts | 173° |
| 2026-05-06 12:49 | 41.29023 | -71.28066 | 17373 ft | 374 kts | 173° |
| 2026-05-06 12:49 | 41.26454 | -71.27340 | 18084 ft | 380 kts | 173° |
| 2026-05-06 12:49 | 41.23841 | -71.26604 | 18721 ft | 386 kts | 173° |
| 2026-05-06 12:50 | 41.21178 | -71.26268 | 19342 ft | 383 kts | 190° |
| 2026-05-06 12:50 | 41.18630 | -71.27144 | 20014 ft | 377 kts | 208° |
| 2026-05-06 12:50 | 41.16435 | -71.29001 | 20703 ft | 375 kts | 223° |
| 2026-05-06 12:50 | 41.14694 | -71.31554 | 21349 ft | 375 kts | 239° |
| 2026-05-06 12:51 | 41.13477 | -71.34564 | 21991 ft | 377 kts | 245° |
| 2026-05-06 12:51 | 41.12351 | -71.37735 | 22611 ft | 381 kts | 246° |
| 2026-05-06 12:51 | 41.11247 | -71.40955 | 23218 ft | 386 kts | 246° |
| 2026-05-06 12:51 | 41.10133 | -71.44213 | 23781 ft | 389 kts | 247° |
| 2026-05-06 12:52 | 41.09001 | -71.47493 | 24314 ft | 392 kts | 246° |
| 2026-05-06 12:52 | 41.07855 | -71.50780 | 24870 ft | 394 kts | 246° |
| 2026-05-06 12:52 | 41.06692 | -71.54086 | 25399 ft | 396 kts | 246° |
| 2026-05-06 12:52 | 41.05517 | -71.57405 | 25912 ft | 400 kts | 246° |
| 2026-05-06 12:53 | 41.04328 | -71.60751 | 26407 ft | 402 kts | 246° |
| 2026-05-06 12:53 | 41.03130 | -71.64113 | 26892 ft | 405 kts | 246° |
| 2026-05-06 12:53 | 41.01922 | -71.67496 | 27349 ft | 408 kts | 246° |
| 2026-05-06 12:53 | 41.00702 | -71.70907 | 27791 ft | 411 kts | 246° |
| 2026-05-06 12:54 | 40.99491 | -71.74291 | 28235 ft | 414 kts | 246° |
| 2026-05-06 12:54 | 40.98253 | -71.77743 | 28674 ft | 416 kts | 246° |
| 2026-05-06 12:54 | 40.97008 | -71.81214 | 29079 ft | 419 kts | 246° |
| 2026-05-06 12:54 | 40.95752 | -71.84711 | 29474 ft | 422 kts | 246° |
| 2026-05-06 12:55 | 40.94486 | -71.88230 | 29856 ft | 425 kts | 246° |
| 2026-05-06 12:55 | 40.93210 | -71.91774 | 30229 ft | 427 kts | 246° |
| 2026-05-06 12:55 | 40.91945 | -71.95278 | 30969 ft | 418 kts | 247° |
| 2026-05-06 12:55 | 40.90698 | -71.98729 | 31536 ft | 415 kts | 247° |
| 2026-05-06 12:56 | 40.89451 | -72.02178 | 31921 ft | 416 kts | 248° |
| 2026-05-06 12:56 | 40.88203 | -72.05629 | 32290 ft | 416 kts | 248° |
| 2026-05-06 12:56 | 40.86957 | -72.09070 | 32739 ft | 414 kts | 248° |
| 2026-05-06 12:56 | 40.85715 | -72.12493 | 33242 ft | 412 kts | 248° |
| 2026-05-06 12:57 | 40.84479 | -72.15896 | 33685 ft | 410 kts | 248° |
| 2026-05-06 12:57 | 40.83247 | -72.19283 | 34077 ft | 409 kts | 249° |
| 2026-05-06 12:57 | 40.82019 | -72.22659 | 34423 ft | 408 kts | 249° |
| 2026-05-06 12:57 | 40.80792 | -72.26026 | 34779 ft | 406 kts | 249° |
| 2026-05-06 12:58 | 40.79577 | -72.29350 | 35348 ft | 398 kts | 249° |
| 2026-05-06 12:58 | 40.78385 | -72.32610 | 35824 ft | 394 kts | 250° |
| 2026-05-06 12:58 | 40.77196 | -72.35864 | 36087 ft | 394 kts | 250° |
| 2026-05-06 12:58 | 40.76004 | -72.39129 | 36293 ft | 396 kts | 250° |
| 2026-05-06 12:59 | 40.74821 | -72.42361 | 36583 ft | 395 kts | 250° |
| 2026-05-06 12:59 | 40.73628 | -72.45612 | 36949 ft | 393 kts | 250° |
| 2026-05-06 12:59 | 40.72441 | -72.48845 | 37297 ft | 391 kts | 250° |
| 2026-05-06 12:59 | 40.71256 | -72.52068 | 37577 ft | 390 kts | 250° |
| 2026-05-06 13:00 | 40.70074 | -72.55279 | 37840 ft | 389 kts | 251° |
| 2026-05-06 13:00 | 40.68763 | -72.58423 | 38134 ft | 394 kts | 245° |
| 2026-05-06 13:00 | 40.67116 | -72.61343 | 38465 ft | 398 kts | 239° |
| 2026-05-06 13:00 | 40.65363 | -72.64117 | 38953 ft | 391 kts | 239° |
| 2026-05-06 13:01 | 40.63623 | -72.66858 | 39178 ft | 390 kts | 239° |
| 2026-05-06 13:01 | 40.60134 | -72.72392 | 39347 ft | 395 kts | 239° |
| 2026-05-06 13:01 | 40.58376 | -72.75188 | 39474 ft | 396 kts | 239° |
| 2026-05-06 13:02 | 40.56622 | -72.77980 | 39665 ft | 395 kts | 239° |
| 2026-05-06 13:02 | 40.54871 | -72.80764 | 39858 ft | 395 kts | 239° |
| 2026-05-06 13:02 | 40.53118 | -72.83552 | 39948 ft | 397 kts | 239° |
| 2026-05-06 13:03 | 40.49587 | -72.89167 | 39964 ft | 398 kts | 239° |
| 2026-05-06 13:03 | 40.46075 | -72.94732 | 39960 ft | 394 kts | 239° |
| 2026-05-06 13:04 | 40.42583 | -73.00259 | 39956 ft | 392 kts | 239° |
| 2026-05-06 13:04 | 40.39130 | -73.05719 | 39953 ft | 390 kts | 239° |
| 2026-05-06 13:05 | 40.35662 | -73.11193 | 39961 ft | 389 kts | 239° |
| 2026-05-06 13:05 | 40.32194 | -73.16658 | 39958 ft | 390 kts | 239° |
| 2026-05-06 13:06 | 40.28744 | -73.22086 | 39951 ft | 391 kts | 239° |
| 2026-05-06 13:06 | 40.25258 | -73.27559 | 39966 ft | 392 kts | 239° |
| 2026-05-06 13:07 | 40.21748 | -73.33061 | 39962 ft | 395 kts | 239° |
| 2026-05-06 13:07 | 40.18218 | -73.38582 | 39958 ft | 396 kts | 239° |
| 2026-05-06 13:08 | 40.14666 | -73.44128 | 39916 ft | 398 kts | 239° |
| 2026-05-06 13:08 | 40.11111 | -73.49667 | 39950 ft | 398 kts | 239° |
| 2026-05-06 13:09 | 40.07556 | -73.55200 | 39965 ft | 397 kts | 239° |
| 2026-05-06 13:09 | 40.04022 | -73.60691 | 39960 ft | 397 kts | 239° |
| 2026-05-06 13:10 | 40.00459 | -73.66216 | 39989 ft | 397 kts | 239° |
| 2026-05-06 13:10 | 39.96508 | -73.71382 | 39931 ft | 412 kts | 228° |
| 2026-05-06 13:11 | 39.91484 | -73.75242 | 39962 ft | 430 kts | 215° |
| 2026-05-06 13:11 | 39.85963 | -73.78160 | 39966 ft | 431 kts | 213° |
| 2026-05-06 13:12 | 39.80397 | -73.81035 | 39958 ft | 429 kts | 214° |
| 2026-05-06 13:12 | 39.74868 | -73.83938 | 39944 ft | 427 kts | 214° |
| 2026-05-06 13:13 | 39.69361 | -73.86852 | 39958 ft | 427 kts | 214° |
| 2026-05-06 13:13 | 39.63855 | -73.89768 | 39971 ft | 427 kts | 214° |
| 2026-05-06 13:14 | 39.58335 | -73.92684 | 39979 ft | 428 kts | 214° |
| 2026-05-06 13:14 | 39.52836 | -73.95583 | 39975 ft | 430 kts | 214° |
| 2026-05-06 13:15 | 39.47285 | -73.98504 | 39974 ft | 431 kts | 214° |
| 2026-05-06 13:15 | 39.41794 | -74.01564 | 39986 ft | 422 kts | 221° |
| 2026-05-06 13:15 | 39.39367 | -74.03583 | 39985 ft | 408 kts | 231° |
| 2026-05-06 13:16 | 39.37235 | -74.05898 | 39993 ft | 404 kts | 232° |
| 2026-05-06 13:16 | 39.32975 | -74.10636 | 39972 ft | 404 kts | 232° |
| 2026-05-06 13:17 | 39.28696 | -74.15359 | 39978 ft | 405 kts | 232° |
| 2026-05-06 13:17 | 39.24394 | -74.20065 | 39981 ft | 405 kts | 232° |
| 2026-05-06 13:18 | 39.20082 | -74.24762 | 39982 ft | 406 kts | 232° |
| 2026-05-06 13:18 | 39.15764 | -74.29455 | 39966 ft | 405 kts | 232° |
| 2026-05-06 13:19 | 39.11452 | -74.34136 | 39981 ft | 405 kts | 232° |
| 2026-05-06 13:19 | 39.07165 | -74.38781 | 39992 ft | 405 kts | 232° |
| 2026-05-06 13:20 | 39.02854 | -74.43445 | 39985 ft | 404 kts | 232° |
| 2026-05-06 13:20 | 38.98552 | -74.48095 | 39973 ft | 403 kts | 232° |
| 2026-05-06 13:21 | 38.94262 | -74.52720 | 39980 ft | 402 kts | 232° |
| 2026-05-06 13:21 | 38.90775 | -74.56683 | 39988 ft | 397 kts | 234° |
| 2026-05-06 13:22 | 38.86748 | -74.61463 | 39990 ft | 396 kts | 234° |
| 2026-05-06 13:22 | 38.82683 | -74.66251 | 39988 ft | 396 kts | 234° |
| 2026-05-06 13:23 | 38.78607 | -74.71013 | 39956 ft | 397 kts | 234° |
| 2026-05-06 13:23 | 38.74508 | -74.75757 | 39977 ft | 399 kts | 233° |
| 2026-05-06 13:24 | 38.70192 | -74.80307 | 39987 ft | 403 kts | 231° |
| 2026-05-06 13:24 | 38.65800 | -74.84819 | 40000 ft | 405 kts | 231° |
| 2026-05-06 13:25 | 38.61415 | -74.89359 | 39995 ft | 406 kts | 231° |
| 2026-05-06 13:25 | 38.57051 | -74.93895 | 39983 ft | 407 kts | 232° |
| 2026-05-06 13:26 | 38.52640 | -74.98474 | 39994 ft | 407 kts | 232° |
| 2026-05-06 13:26 | 38.48406 | -75.03171 | 40011 ft | 405 kts | 234° |
| 2026-05-06 13:27 | 38.44006 | -75.07774 | 40020 ft | 412 kts | 230° |
| 2026-05-06 13:27 | 38.39379 | -75.12135 | 39972 ft | 413 kts | 229° |
| 2026-05-06 13:28 | 38.34758 | -75.16469 | 39998 ft | 411 kts | 230° |
| 2026-05-06 13:28 | 38.30173 | -75.20802 | 40009 ft | 410 kts | 230° |
| 2026-05-06 13:29 | 38.25597 | -75.25139 | 40009 ft | 409 kts | 230° |
| 2026-05-06 13:29 | 38.21062 | -75.29432 | 40007 ft | 409 kts | 230° |
| 2026-05-06 13:30 | 38.16491 | -75.33752 | 39984 ft | 409 kts | 230° |
| 2026-05-06 13:30 | 38.11920 | -75.38065 | 39997 ft | 410 kts | 230° |
| 2026-05-06 13:31 | 38.07337 | -75.42382 | 40004 ft | 411 kts | 230° |
| 2026-05-06 13:31 | 38.02805 | -75.46557 | 40014 ft | 415 kts | 228° |
| 2026-05-06 13:32 | 37.98013 | -75.50675 | 39975 ft | 416 kts | 227° |
| 2026-05-06 13:32 | 37.93244 | -75.54770 | 40013 ft | 416 kts | 228° |
| 2026-05-06 13:33 | 37.88447 | -75.58923 | 40018 ft | 417 kts | 228° |
| 2026-05-06 13:33 | 37.83578 | -75.63000 | 40010 ft | 428 kts | 221° |
| 2026-05-06 13:34 | 37.78075 | -75.66222 | 40014 ft | 438 kts | 217° |
| 2026-05-06 13:34 | 37.72516 | -75.69307 | 40010 ft | 439 kts | 217° |
| 2026-05-06 13:35 | 37.66927 | -75.72440 | 40019 ft | 439 kts | 218° |
| 2026-05-06 13:35 | 37.61344 | -75.75600 | 40018 ft | 440 kts | 218° |
| 2026-05-06 13:36 | 37.55760 | -75.78767 | 40020 ft | 440 kts | 218° |
| 2026-05-06 13:36 | 37.50168 | -75.81932 | 40019 ft | 439 kts | 218° |
| 2026-05-06 13:37 | 37.44592 | -75.85082 | 40013 ft | 439 kts | 218° |
| 2026-05-06 13:37 | 37.39065 | -75.88199 | 40015 ft | 437 kts | 218° |
| 2026-05-06 13:38 | 37.33523 | -75.91319 | 39987 ft | 436 kts | 218° |
| 2026-05-06 13:38 | 37.27989 | -75.94432 | 40014 ft | 435 kts | 218° |
| 2026-05-06 13:39 | 37.22462 | -75.97537 | 40028 ft | 435 kts | 218° |
| 2026-05-06 13:39 | 37.16926 | -76.00642 | 40027 ft | 437 kts | 218° |
| 2026-05-06 13:40 | 37.11414 | -76.03763 | 40010 ft | 433 kts | 221° |
| 2026-05-06 13:40 | 37.06135 | -76.07330 | 40021 ft | 430 kts | 223° |
| 2026-05-06 13:41 | 37.00903 | -76.11010 | 40026 ft | 432 kts | 223° |
| 2026-05-06 13:41 | 36.95642 | -76.14682 | 40033 ft | 434 kts | 223° |
| 2026-05-06 13:42 | 36.90338 | -76.18344 | 39987 ft | 436 kts | 223° |
| 2026-05-06 13:42 | 36.85057 | -76.21971 | 40009 ft | 436 kts | 223° |
| 2026-05-06 13:43 | 36.79742 | -76.25615 | 40018 ft | 436 kts | 223° |
| 2026-05-06 13:43 | 36.74424 | -76.29257 | 40038 ft | 435 kts | 223° |
| 2026-05-06 13:44 | 36.69118 | -76.32886 | 40034 ft | 435 kts | 223° |
| 2026-05-06 13:44 | 36.63816 | -76.36504 | 40031 ft | 434 kts | 223° |
| 2026-05-06 13:45 | 36.58521 | -76.40115 | 40036 ft | 433 kts | 223° |
| 2026-05-06 13:45 | 36.50626 | -76.45488 | 40050 ft | 433 kts | 223° |
| 2026-05-06 13:46 | 36.45335 | -76.49082 | 40022 ft | 433 kts | 223° |
| 2026-05-06 13:46 | 36.40059 | -76.52659 | 40055 ft | 432 kts | 223° |
| 2026-05-06 13:47 | 36.34771 | -76.56240 | 40058 ft | 433 kts | 223° |
| 2026-05-06 13:47 | 36.29479 | -76.59817 | 40064 ft | 433 kts | 223° |
| 2026-05-06 13:48 | 36.24212 | -76.63373 | 40069 ft | 433 kts | 223° |
| 2026-05-06 13:48 | 36.18907 | -76.66947 | 40067 ft | 433 kts | 223° |
| 2026-05-06 13:49 | 36.13631 | -76.70498 | 40072 ft | 434 kts | 223° |
| 2026-05-06 13:49 | 36.08363 | -76.74038 | 40079 ft | 435 kts | 223° |
| 2026-05-06 13:50 | 36.03042 | -76.77607 | 40074 ft | 436 kts | 223° |
| 2026-05-06 13:50 | 35.97718 | -76.81173 | 40065 ft | 436 kts | 223° |
| 2026-05-06 13:51 | 35.92370 | -76.84751 | 40065 ft | 438 kts | 223° |
| 2026-05-06 13:51 | 35.86946 | -76.88251 | 40076 ft | 442 kts | 221° |
| 2026-05-06 13:52 | 35.81454 | -76.91600 | 40077 ft | 444 kts | 220° |
| 2026-05-06 13:52 | 35.75898 | -76.94976 | 40061 ft | 445 kts | 220° |
| 2026-05-06 13:53 | 35.70352 | -76.98366 | 40076 ft | 445 kts | 220° |
| 2026-05-06 13:53 | 35.64806 | -77.01765 | 40083 ft | 445 kts | 220° |
| 2026-05-06 13:54 | 35.59241 | -77.05174 | 40082 ft | 446 kts | 220° |
| 2026-05-06 13:54 | 35.53679 | -77.08575 | 40052 ft | 446 kts | 220° |
| 2026-05-06 13:55 | 35.48154 | -77.11948 | 40070 ft | 447 kts | 220° |
| 2026-05-06 13:55 | 35.42467 | -77.15416 | 40088 ft | 448 kts | 220° |
| 2026-05-06 13:56 | 35.36916 | -77.18795 | 40084 ft | 449 kts | 220° |
| 2026-05-06 13:56 | 35.31314 | -77.22199 | 40080 ft | 450 kts | 220° |
| 2026-05-06 13:57 | 35.25692 | -77.25608 | 40094 ft | 450 kts | 220° |
| 2026-05-06 13:57 | 35.20075 | -77.29009 | 40079 ft | 450 kts | 220° |
| 2026-05-06 13:58 | 35.14464 | -77.32401 | 40079 ft | 449 kts | 220° |
| 2026-05-06 13:58 | 35.08862 | -77.35783 | 40067 ft | 448 kts | 220° |
| 2026-05-06 13:59 | 35.03273 | -77.39153 | 40083 ft | 448 kts | 220° |
| 2026-05-06 13:59 | 34.97682 | -77.42519 | 40096 ft | 447 kts | 220° |
| 2026-05-06 14:00 | 34.92138 | -77.45853 | 40100 ft | 447 kts | 220° |
| 2026-05-06 14:00 | 34.86545 | -77.49211 | 40104 ft | 448 kts | 220° |
| 2026-05-06 14:01 | 34.80944 | -77.52569 | 40098 ft | 448 kts | 219° |
| 2026-05-06 14:01 | 34.75327 | -77.55931 | 40107 ft | 450 kts | 219° |
| 2026-05-06 14:02 | 34.69694 | -77.59298 | 40107 ft | 453 kts | 219° |
| 2026-05-06 14:02 | 34.64062 | -77.62658 | 40097 ft | 454 kts | 219° |
| 2026-05-06 14:03 | 34.58390 | -77.66035 | 40085 ft | 454 kts | 219° |
| 2026-05-06 14:03 | 34.55450 | -77.67563 | 40079 ft | 466 kts | 211° |
| 2026-05-06 14:03 | 34.52259 | -77.68586 | 40102 ft | 478 kts | 205° |
| 2026-05-06 14:04 | 34.45716 | -77.70190 | 40086 ft | 480 kts | 203° |
| 2026-05-06 14:04 | 34.39169 | -77.71749 | 40086 ft | 478 kts | 204° |
| 2026-05-06 14:05 | 34.32666 | -77.73366 | 40084 ft | 476 kts | 204° |
| 2026-05-06 14:05 | 34.26196 | -77.75011 | 40080 ft | 474 kts | 204° |
| 2026-05-06 14:06 | 34.19750 | -77.76654 | 40087 ft | 473 kts | 204° |
| 2026-05-06 14:06 | 34.13310 | -77.78290 | 40087 ft | 472 kts | 204° |
| 2026-05-06 14:07 | 34.06926 | -77.79906 | 40091 ft | 471 kts | 204° |
| 2026-05-06 14:07 | 34.00509 | -77.81529 | 40097 ft | 471 kts | 204° |
| 2026-05-06 14:08 | 33.94090 | -77.83150 | 40101 ft | 471 kts | 204° |
| 2026-05-06 14:08 | 33.87663 | -77.84770 | 40103 ft | 472 kts | 204° |
| 2026-05-06 14:09 | 33.81236 | -77.86387 | 40096 ft | 472 kts | 204° |
| 2026-05-06 14:09 | 33.75938 | -77.87890 | 40103 ft | 467 kts | 208° |
| 2026-05-06 14:10 | 33.68703 | -77.90416 | 40110 ft | 466 kts | 209° |
| 2026-05-06 14:10 | 33.63476 | -77.92243 | 40107 ft | 468 kts | 208° |
| 2026-05-06 14:11 | 33.57234 | -77.94366 | 40101 ft | 469 kts | 208° |
| 2026-05-06 14:11 | 33.50945 | -77.96491 | 40105 ft | 470 kts | 208° |
| 2026-05-06 14:12 | 33.44643 | -77.98620 | 40097 ft | 470 kts | 208° |
| 2026-05-06 14:12 | 33.38358 | -78.00742 | 40101 ft | 469 kts | 208° |
| 2026-05-06 14:13 | 33.32081 | -78.02856 | 40102 ft | 467 kts | 208° |
| 2026-05-06 14:13 | 33.25881 | -78.04943 | 40105 ft | 465 kts | 208° |
| 2026-05-06 14:14 | 33.19643 | -78.07041 | 40107 ft | 463 kts | 208° |
| 2026-05-06 14:14 | 33.13447 | -78.09122 | 40113 ft | 462 kts | 208° |
| 2026-05-06 14:15 | 33.07273 | -78.11192 | 40104 ft | 459 kts | 208° |
| 2026-05-06 14:15 | 33.01157 | -78.13240 | 40103 ft | 459 kts | 208° |
| 2026-05-06 14:16 | 32.95013 | -78.15295 | 40112 ft | 458 kts | 208° |
| 2026-05-06 14:16 | 32.88883 | -78.17343 | 40113 ft | 458 kts | 208° |
| 2026-05-06 14:17 | 32.82736 | -78.19392 | 40115 ft | 458 kts | 208° |
| 2026-05-06 14:17 | 32.76578 | -78.21443 | 40119 ft | 459 kts | 208° |
| 2026-05-06 14:18 | 32.70411 | -78.23491 | 40120 ft | 460 kts | 208° |
| 2026-05-06 14:18 | 32.64274 | -78.25515 | 40115 ft | 461 kts | 207° |
| 2026-05-06 14:19 | 32.58079 | -78.27554 | 40105 ft | 461 kts | 207° |
| 2026-05-06 14:19 | 32.51881 | -78.29593 | 40115 ft | 462 kts | 207° |
| 2026-05-06 14:20 | 32.45719 | -78.31619 | 40119 ft | 462 kts | 207° |
| 2026-05-06 14:20 | 32.39517 | -78.33655 | 40120 ft | 463 kts | 207° |
| 2026-05-06 14:21 | 32.33305 | -78.35691 | 40098 ft | 463 kts | 206° |
| 2026-05-06 14:21 | 32.27101 | -78.37728 | 40119 ft | 463 kts | 206° |
| 2026-05-06 14:22 | 32.20894 | -78.39768 | 40121 ft | 463 kts | 206° |
| 2026-05-06 14:22 | 32.14670 | -78.41810 | 40122 ft | 463 kts | 206° |
| 2026-05-06 14:23 | 32.08490 | -78.43834 | 40086 ft | 463 kts | 206° |
| 2026-05-06 14:23 | 32.02284 | -78.45863 | 40116 ft | 463 kts | 206° |
| 2026-05-06 14:24 | 31.96076 | -78.47891 | 40126 ft | 463 kts | 206° |
| 2026-05-06 14:24 | 31.89867 | -78.49917 | 40127 ft | 463 kts | 206° |
| 2026-05-06 14:25 | 31.83641 | -78.51945 | 40127 ft | 463 kts | 206° |
| 2026-05-06 14:25 | 31.77465 | -78.53953 | 40119 ft | 463 kts | 206° |
| 2026-05-06 14:26 | 31.71241 | -78.55975 | 40128 ft | 463 kts | 206° |
| 2026-05-06 14:26 | 31.65018 | -78.57994 | 40127 ft | 464 kts | 206° |
| 2026-05-06 14:27 | 31.58790 | -78.60011 | 40131 ft | 464 kts | 206° |
| 2026-05-06 14:27 | 31.52568 | -78.62035 | 40121 ft | 463 kts | 207° |
| 2026-05-06 14:28 | 31.46381 | -78.64150 | 40128 ft | 463 kts | 207° |
| 2026-05-06 14:28 | 31.40229 | -78.66281 | 40132 ft | 463 kts | 207° |
| 2026-05-06 14:29 | 31.34040 | -78.68413 | 40132 ft | 464 kts | 207° |
| 2026-05-06 14:29 | 31.27840 | -78.70536 | 40112 ft | 463 kts | 207° |
| 2026-05-06 14:30 | 31.21652 | -78.72648 | 40125 ft | 463 kts | 207° |
| 2026-05-06 14:30 | 31.15497 | -78.74746 | 40132 ft | 463 kts | 207° |
| 2026-05-06 14:31 | 31.09322 | -78.76849 | 40131 ft | 462 kts | 207° |
| 2026-05-06 14:31 | 31.03140 | -78.78952 | 40105 ft | 462 kts | 207° |
| 2026-05-06 14:32 | 30.96974 | -78.81046 | 40121 ft | 461 kts | 207° |
| 2026-05-06 14:32 | 30.90808 | -78.83138 | 40134 ft | 461 kts | 207° |
| 2026-05-06 14:33 | 30.84649 | -78.85225 | 40132 ft | 461 kts | 207° |
| 2026-05-06 14:33 | 30.78494 | -78.87308 | 40134 ft | 461 kts | 207° |
| 2026-05-06 14:34 | 30.72337 | -78.89388 | 40127 ft | 460 kts | 206° |
| 2026-05-06 14:34 | 30.66183 | -78.91465 | 40130 ft | 461 kts | 206° |
| 2026-05-06 14:35 | 30.60068 | -78.93526 | 40132 ft | 461 kts | 206° |
| 2026-05-06 14:35 | 30.53896 | -78.95603 | 40131 ft | 462 kts | 206° |
| 2026-05-06 14:36 | 30.47724 | -78.97679 | 40112 ft | 462 kts | 206° |
| 2026-05-06 14:36 | 30.41557 | -78.99782 | 40125 ft | 459 kts | 209° |
| 2026-05-06 14:37 | 30.35924 | -79.02868 | 39787 ft | 438 kts | 231° |
| 2026-05-06 14:37 | 30.33998 | -79.05515 | 38681 ft | 430 kts | 253° |
| 2026-05-06 14:37 | 30.33421 | -79.08868 | 36448 ft | 435 kts | 283° |
| 2026-05-06 14:38 | 30.34840 | -79.11977 | 33777 ft | 462 kts | 321° |
| 2026-05-06 14:38 | 30.37984 | -79.12961 | 31069 ft | 519 kts | 5° |
| 2026-05-06 14:38 | 30.41093 | -79.10475 | 29002 ft | 585 kts | 55° |
| 2026-05-06 14:38 | 30.41534 | -79.05844 | 27491 ft | 617 kts | 109° |
| 2026-05-06 14:39 | 30.38643 | -79.02423 | 25749 ft | 604 kts | 167° |
| 2026-05-06 14:39 | 30.34839 | -79.03246 | 24145 ft | 556 kts | 228° |
| 2026-05-06 14:39 | 30.33808 | -79.07112 | 23303 ft | 510 kts | 289° |
| 2026-05-06 14:39 | 30.36342 | -79.09599 | 22662 ft | 511 kts | 353° |
| 2026-05-06 14:40 | 30.39450 | -79.07733 | 21147 ft | 557 kts | 59° |
| 2026-05-06 14:40 | 30.39177 | -79.03346 | 19293 ft | 591 kts | 130° |